Avon Heights, Pennsylvania
Current Conditions -  °F | °C
As of 7:58 PM on Friday 24 Oct 2014 (Local Time) from KMUI Reporting Station
Clear Clear  
Wind Chill: 61°   Ceiling: Unl
Heat Index: 61°   Visibility: 10mi
Dew Point: 36°   Wind: 8mph
Humidity: 39%   Direction: 280°W
Pressure: 29.89"   Gusts: NA
Location:  40.2957°N, 76.4189°W
Report Text: KMUI 242358Z AUTO 28007KT 10SM CLR 16/02 A2989 RMK AO2 SLP124 T01630024 10198 20163 52013 $
Loading
Personal Weather Stations






























Interactive Weather Map
Tropical Storm Tracking
New forecast layout! Learn more

10-Day Weather Forecast

Advertisements
Track Severe Weather on mobile